Plainfield, NJ (07062)

5:02 PM EDT on August 29, 2015 (GMT -0400)
Fire Station #161 | | Change Station
CLOSE
Current Station
Personal Weather Station
Location: Scotch Plains, NJ
Elevation: 144 ft
Nearby Weather Stations

Elev 144 ft 40.65 °N, 74.40 °W | Updated 15 seconds ago

Mostly Cloudy
Mostly Cloudy
85.8 °F
Feels Like 86 °F
N
0.0
Wind Variable Wind from ENE
Gusts 0.0 mph

Today
High -- | Low -- °F
--% Chance of Precip.
Yesterday
High -- | Low -- °F
Precip. -- in
6:21 AM 7:34 PM
Full, 100% visible
Pressure 30.12 in
Visibility 10.0 miles
Clouds Mostly Cloudy 6500 ft
Heat Index 86 °F
Dew Point 60 °F
Humidity 42%
Rainfall 0.00 in
Snow Depth Not available.
UV 1.2 out of 12
Pollen 10.00 out of 12
Air Quality Not available.
Flu Activity Not available.
METAR KLDJ 292055Z AUTO 14008KT 10SM BKN065 28/15 A3012 RMK AO2 T02770150
Pressure 30.12 in
Visibility 10.0 miles
Clouds Mostly Cloudy 6500 ft
Heat Index 86 °F
Dew Point 60 °F
Humidity 42%
Rainfall 0.00 in
Snow Depth Not available.
UV 1.2 out of 12
Pollen 10.00 out of 12
Air Quality Not available.
Flu Activity Not available.
METAR KLDJ 292055Z AUTO 14008KT 10SM BKN065 28/15 A3012 RMK AO2 T02770150

10-Day Weather Forecast

×

Almanac

Astronomy

Aug. 29, 2015 Rise Set
Actual Time
Civil Twilight
Nautical Twilight
Astronomical Twilight
Moon
Length of Visible Light
Length of Day
Tomorrow will be .
, % of the Moon is Illuminated

Today's Extremes

State Highs State Lows

Community

WunderPhotos

Upload Photos

1,850,800 photos uploaded!

WunderBlogs® & News

Nearby

Air Quality

  Air Quality AQ Index Pollutant
Not available.

Snow Depth

Station Depth Elevation

Earthquake Activity

City Distance Mag. Time & Date
Minimum magnitude displayed is 2.5.

Coastal Water Temperatures

Place Temperature

Stations

Nearby Weather Stations

Station Location Temp. Windchill Dew Point Humidity Wind Precip. Elev Updated Type